Time;durP1;ratioP1;P1;durP2;ratioP2;P2;SDS_P1;SDS_P2;PMS_P1;PMS_P2;Temp;Humidity;BMP_temperature;BMP_pressure;BME280_temperature;BME280_humidity;BME280_pressure;Samples;Min_cycle;Max_cycle;Signal;HPM_P1;HPM_P2
2022/04/05 00:04:33;;;;;;;43.10;23.13;;;2.40;99.90;;;;;;10329733;28;20037;-84
2022/04/05 00:09:33;;;;;;;40.67;21.80;;;2.30;99.90;;;;;;10333188;28;20490;-81
2022/04/05 00:14:34;;;;;;;39.37;19.93;;;2.20;99.90;;;;;;10356374;28;20048;-80
2022/04/05 00:19:35;;;;;;;43.47;23.53;;;2.10;99.90;;;;;;10366866;28;20052;-81
2022/04/05 00:24:36;;;;;;;46.17;23.23;;;2.00;99.90;;;;;;10367020;28;20781;-80
2022/04/05 00:29:37;;;;;;;49.67;24.13;;;2.00;99.90;;;;;;10368144;28;20033;-82
2022/04/05 00:34:37;;;;;;;54.57;25.87;;;1.90;99.90;;;;;;10366934;28;20030;-80
2022/04/05 00:39:38;;;;;;;57.60;27.90;;;1.80;99.90;;;;;;10366799;28;20115;-83
2022/04/05 00:44:38;;;;;;;52.47;27.90;;;1.80;99.90;;;;;;10379640;28;20034;-82
2022/04/05 00:49:41;;;;;;;48.30;27.03;;;1.90;99.90;;;;;;10380059;28;20120;-84
2022/04/05 00:54:45;;;;;;;46.27;27.13;;;2.00;99.90;;;;;;10379811;28;20057;-82
2022/04/05 00:59:56;;;;;;;52.07;27.63;;;2.00;99.90;;;;;;10380379;28;20042;-81
2022/04/05 01:04:56;;;;;;;53.47;29.00;;;2.00;99.90;;;;;;10380650;28;20034;-83
2022/04/05 01:09:58;;;;;;;47.83;26.87;;;2.00;99.90;;;;;;10380268;28;20038;-82
2022/04/05 01:14:59;;;;;;;52.07;28.93;;;2.00;99.90;;;;;;10380797;28;20072;-84
2022/04/05 01:20:01;;;;;;;50.73;27.70;;;2.10;99.90;;;;;;10379388;28;20128;-82
2022/04/05 01:25:01;;;;;;;52.13;29.37;;;2.10;99.90;;;;;;10380249;28;20026;-82
2022/04/05 01:30:02;;;;;;;46.80;26.53;;;2.20;99.90;;;;;;10379064;28;20633;-82
2022/04/05 01:35:03;;;;;;;49.20;26.20;;;2.10;99.90;;;;;;10379873;28;20030;-81
2022/04/05 01:40:05;;;;;;;50.80;27.83;;;2.20;99.90;;;;;;10379098;28;20489;-82
2022/04/05 01:45:06;;;;;;;50.83;27.10;;;2.20;99.90;;;;;;10360601;28;20044;-81
2022/04/05 01:50:07;;;;;;;51.87;28.30;;;2.20;99.90;;;;;;10364025;28;20021;-82
2022/04/05 01:55:09;;;;;;;51.87;28.83;;;2.10;99.90;;;;;;10373680;28;20032;-81
2022/04/05 02:00:14;;;;;;;58.90;29.53;;;2.20;99.90;;;;;;10371664;28;20030;-81
2022/04/05 02:05:15;;;;;;;55.20;30.65;;;2.20;99.90;;;;;;10354636;28;20038;-81
2022/04/05 02:10:16;;;;;;;66.47;35.73;;;2.20;99.90;;;;;;10372975;28;20040;-80
2022/04/05 02:15:16;;;;;;;58.67;32.13;;;2.20;99.90;;;;;;10371994;28;20529;-82
2022/04/05 02:20:17;;;;;;;65.90;34.80;;;2.20;99.90;;;;;;10371955;28;20034;-81
2022/04/05 02:25:18;;;;;;;61.23;31.80;;;2.30;99.90;;;;;;10371862;28;20026;-82
2022/04/05 02:30:19;;;;;;;62.87;32.20;;;2.30;99.90;;;;;;10371276;28;20645;-81
2022/04/05 02:35:19;;;;;;;69.00;33.47;;;2.30;99.90;;;;;;10372850;28;20021;-81
2022/04/05 02:40:20;;;;;;;71.33;37.40;;;2.30;99.90;;;;;;10370749;28;20057;-83
2022/04/05 02:45:21;;;;;;;67.93;35.03;;;2.30;99.90;;;;;;10370567;28;20038;-81
2022/04/05 02:50:22;;;;;;;62.37;34.20;;;2.40;99.90;;;;;;10370612;28;20026;-81
2022/04/05 02:55:23;;;;;;;56.57;29.70;;;2.40;99.90;;;;;;10370072;28;20482;-82
2022/04/05 03:00:24;;;;;;;56.67;31.37;;;2.40;99.90;;;;;;10370597;28;20433;-81
2022/04/05 03:05:24;;;;;;;59.77;32.47;;;2.40;99.90;;;;;;10391913;28;20660;-80
2022/04/05 03:10:25;;;;;;;59.50;31.47;;;2.40;99.90;;;;;;10389258;28;20030;-83
2022/04/05 03:15:26;;;;;;;61.13;30.23;;;2.40;99.90;;;;;;10369812;28;20033;-83
2022/04/05 03:20:26;;;;;;;58.27;31.30;;;2.40;99.90;;;;;;10369447;28;20508;-81
2022/04/05 03:25:28;;;;;;;65.07;32.30;;;2.40;99.90;;;;;;10351799;28;20044;-81
2022/04/05 03:30:28;;;;;;;67.03;34.23;;;2.40;99.90;;;;;;10368330;28;20033;-82
2022/04/05 03:35:29;;;;;;;67.97;33.70;;;2.40;99.90;;;;;;10368651;28;20029;-80
2022/04/05 03:40:31;;;;;;;68.20;33.10;;;2.50;99.90;;;;;;10368723;28;20065;-81
2022/04/05 03:45:32;;;;;;;75.77;39.00;;;2.40;99.90;;;;;;10381711;23;20061;-79
2022/04/05 03:50:32;;;;;;;81.80;40.57;;;2.40;99.90;;;;;;10368261;28;20018;-82
2022/04/05 03:55:33;;;;;;;79.23;41.23;;;2.40;99.90;;;;;;10356595;28;20036;-81
2022/04/05 04:00:34;;;;;;;77.93;41.67;;;2.40;99.90;;;;;;10333840;28;20479;-81
2022/04/05 04:05:34;;;;;;;77.90;40.03;;;2.50;99.90;;;;;;10344411;28;20133;-82
2022/04/05 04:10:35;;;;;;;88.27;44.13;;;2.50;99.90;;;;;;10355566;28;20038;-81
2022/04/05 04:15:36;;;;;;;78.50;37.93;;;2.50;99.90;;;;;;10341955;28;20033;-84
2022/04/05 04:20:42;;;;;;;91.60;44.27;;;2.50;99.90;;;;;;10339567;28;20034;-80
2022/04/05 04:25:42;;;;;;;90.88;41.80;;;2.50;99.90;;;;;;10324665;28;20529;-81
2022/04/05 04:30:43;;;;;;;86.73;40.40;;;2.50;99.90;;;;;;10330384;28;20025;-83
2022/04/05 04:35:44;;;;;;;75.50;37.90;;;2.60;99.90;;;;;;10366417;28;20026;-82
2022/04/05 04:40:50;;;;;;;84.23;41.60;;;2.60;99.90;;;;;;10367214;28;20117;-83
2022/04/05 04:45:50;;;;;;;73.03;38.70;;;2.60;99.90;;;;;;10362471;28;20064;-81
2022/04/05 04:50:51;;;;;;;83.00;37.73;;;2.70;99.90;;;;;;10335579;28;20274;-81
2022/04/05 04:55:52;;;;;;;77.70;37.90;;;2.70;99.90;;;;;;10326563;28;20033;-82
2022/04/05 05:00:52;;;;;;;76.77;36.97;;;2.70;99.90;;;;;;10326936;28;20092;-82
2022/04/05 05:05:54;;;;;;;75.90;40.33;;;2.70;99.90;;;;;;10327247;28;20026;-81
2022/04/05 05:10:54;;;;;;;87.17;40.53;;;2.70;99.90;;;;;;10326278;28;20034;-81
2022/04/05 05:15:55;;;;;;;95.70;46.70;;;2.80;99.90;;;;;;10326245;28;20034;-82
2022/04/05 05:20:56;;;;;;;96.77;45.47;;;2.80;99.90;;;;;;10326448;28;20041;-81
2022/04/05 05:25:57;;;;;;;96.90;46.27;;;2.80;99.90;;;;;;10326583;28;20031;-82
2022/04/05 05:30:57;;;;;;;81.50;39.03;;;2.80;99.90;;;;;;10332809;28;20022;-83
2022/04/05 05:35:59;;;;;;;124.30;54.27;;;2.90;99.90;;;;;;10333421;28;20050;-82
2022/04/05 05:41:00;;;;;;;88.10;39.57;;;2.90;99.90;;;;;;10333214;28;20794;-81
2022/04/05 05:46:03;;;;;;;99.23;43.27;;;2.90;99.90;;;;;;10332828;28;20050;-82
2022/04/05 05:51:05;;;;;;;87.90;41.93;;;2.90;99.90;;;;;;10332956;28;20221;-81
2022/04/05 05:56:06;;;;;;;85.70;40.73;;;3.00;99.90;;;;;;10333096;28;20027;-82
2022/04/05 06:01:06;;;;;;;95.93;44.93;;;3.00;99.90;;;;;;10332795;28;20046;-82
2022/04/05 06:06:07;;;;;;;67.33;32.80;;;3.10;99.90;;;;;;10332940;28;20034;-82
2022/04/05 06:11:08;;;;;;;78.10;38.17;;;3.10;99.90;;;;;;10332527;28;20435;-84
2022/04/05 06:16:09;;;;;;;98.97;44.60;;;3.10;99.90;;;;;;10332148;28;20062;-84
2022/04/05 06:21:09;;;;;;;92.10;43.33;;;3.20;99.90;;;;;;10332429;28;20023;-82
2022/04/05 06:26:11;;;;;;;96.30;45.77;;;3.20;99.90;;;;;;10331525;28;20397;-81
2022/04/05 06:31:12;;;;;;;105.03;48.63;;;3.30;99.90;;;;;;10331478;28;20026;-83
2022/04/05 06:36:12;;;;;;;126.03;53.87;;;3.30;99.90;;;;;;10331088;28;20459;-82
2022/04/05 06:41:13;;;;;;;91.00;42.23;;;3.30;99.90;;;;;;10313460;28;20035;-82
2022/04/05 06:46:16;;;;;;;72.23;38.23;;;3.40;99.90;;;;;;10331519;28;20058;-83
2022/04/05 06:51:18;;;;;;;92.40;43.50;;;3.40;99.90;;;;;;10341283;28;20062;-81
2022/04/05 06:56:21;;;;;;;90.00;44.03;;;3.40;99.90;;;;;;10330523;28;20037;-80
2022/04/05 07:01:22;;;;;;;75.30;37.20;;;3.50;99.90;;;;;;10330128;28;20069;-83
2022/04/05 07:06:22;;;;;;;73.80;38.27;;;3.50;99.90;;;;;;10330478;28;20080;-82
2022/04/05 07:11:23;;;;;;;66.37;34.77;;;3.50;99.90;;;;;;10330318;28;20026;-82
2022/04/05 07:16:24;;;;;;;78.07;38.00;;;3.60;99.90;;;;;;10329762;28;20475;-84
2022/04/05 07:21:24;;;;;;;88.87;44.03;;;3.50;99.90;;;;;;10329828;28;20026;-80
2022/04/05 07:26:25;;;;;;;84.53;38.97;;;3.60;99.90;;;;;;10336986;28;20029;-83
2022/04/05 07:31:26;;;;;;;101.10;47.77;;;3.70;99.90;;;;;;10348527;28;20053;-81
2022/04/05 07:36:26;;;;;;;88.37;44.30;;;3.70;99.90;;;;;;10345985;28;20048;-83
2022/04/05 07:41:27;;;;;;;82.50;42.07;;;3.80;99.90;;;;;;10362035;28;20037;-83
2022/04/05 07:46:27;;;;;;;63.93;31.57;;;3.80;99.90;;;;;;10366832;28;20130;-82
2022/04/05 07:51:28;;;;;;;62.93;31.80;;;3.90;99.90;;;;;;10349722;28;20026;-81
2022/04/05 07:56:29;;;;;;;47.57;25.27;;;3.90;99.90;;;;;;10360511;28;20026;-83
2022/04/05 08:01:29;;;;;;;63.67;29.73;;;4.00;99.90;;;;;;10358036;28;20049;-81
2022/04/05 08:06:31;;;;;;;60.67;29.37;;;4.00;99.90;;;;;;10358804;28;20387;-80
2022/04/05 08:11:34;;;;;;;49.37;28.47;;;4.00;99.90;;;;;;10315582;28;20034;-83
2022/04/05 08:17:13;;;;;;;58.13;29.23;;;4.00;99.90;;;;;;10327810;28;20038;-82
2022/04/05 08:22:14;;;;;;;56.60;27.20;;;4.00;99.90;;;;;;10351947;28;20018;-82
2022/04/05 08:28:55;;;;;;;;;;;;;;;;;;;;;
2022/04/05 08:33:40;;;;;;;50.20;26.03;;;3.90;99.90;;;;;;10148316;29;20682;-84
2022/04/05 08:38:41;;;;;;;45.60;21.67;;;4.00;99.90;;;;;;10331754;28;20054;-83
2022/04/05 08:43:43;;;;;;;47.87;24.83;;;4.00;99.90;;;;;;10351953;28;20033;-82
2022/04/05 08:48:46;;;;;;;43.27;22.77;;;4.00;99.90;;;;;;10361757;28;20058;-83
2022/04/05 08:53:47;;;;;;;51.90;26.97;;;4.00;99.90;;;;;;10363744;28;20030;-82
2022/04/05 08:58:47;;;;;;;63.63;34.43;;;4.00;99.90;;;;;;10353868;28;20053;-85
2022/04/05 09:03:49;;;;;;;59.10;32.53;;;4.00;99.90;;;;;;10357872;28;20038;-82
2022/04/05 09:08:50;;;;;;;54.93;27.70;;;4.10;99.90;;;;;;10352308;28;20371;-83
2022/04/05 09:13:58;;;;;;;49.00;25.87;;;4.20;99.90;;;;;;10355991;28;20034;-83
2022/04/05 09:19:00;;;;;;;53.20;29.50;;;4.50;99.90;;;;;;10344675;28;20034;-82
2022/04/05 09:24:07;;;;;;;43.40;23.87;;;4.60;99.90;;;;;;10332891;28;20026;-84
2022/04/05 09:29:08;;;;;;;50.20;27.97;;;4.80;99.90;;;;;;10333572;28;20031;-82
2022/04/05 09:34:17;;;;;;;49.80;27.63;;;5.00;99.90;;;;;;10334138;28;20466;-81
2022/04/05 09:39:21;;;;;;;48.20;25.87;;;5.10;99.90;;;;;;10348336;28;20620;-83
2022/04/05 09:44:42;;;;;;;45.33;23.77;;;5.20;99.90;;;;;;10368059;28;20077;-81
2022/04/05 09:49:44;;;;;;;54.90;29.17;;;5.10;99.90;;;;;;10367030;28;20143;-82
2022/04/05 09:54:45;;;;;;;43.87;24.77;;;5.30;99.90;;;;;;10371116;28;20736;-80
2022/04/05 09:59:46;;;;;;;43.93;24.67;;;5.40;99.90;;;;;;10369856;28;20041;-80
2022/04/05 10:05:09;;;;;;;45.67;27.17;;;5.60;99.90;;;;;;10370829;28;20029;-84
2022/04/05 10:10:09;;;;;;;40.63;23.47;;;5.70;99.90;;;;;;10369512;28;20026;-81
2022/04/05 10:15:10;;;;;;;48.63;27.57;;;5.60;99.90;;;;;;10368051;28;20026;-82
2022/04/05 10:20:12;;;;;;;35.97;21.03;;;5.70;99.90;;;;;;10369143;28;20042;-81
2022/04/05 10:25:13;;;;;;;47.80;25.40;;;5.90;99.90;;;;;;10366219;28;20451;-81
2022/04/05 10:30:29;;;;;;;31.40;20.17;;;5.80;99.90;;;;;;10346186;28;20041;-82
2022/04/05 10:35:45;;;;;;;37.15;20.42;;;5.80;99.90;;;;;;10354584;28;20030;-83
2022/04/05 10:47:20;;;;;;;34.20;20.13;;;5.60;99.90;;;;;;10192906;29;20064;-83
2022/04/05 10:52:27;;;;;;;35.93;21.53;;;5.60;99.90;;;;;;10349961;28;20041;-84
2022/04/05 10:57:34;;;;;;;42.97;22.97;;;5.50;99.90;;;;;;10327441;28;20587;-84
2022/04/05 11:03:05;;;;;;;39.90;21.93;;;5.50;99.90;;;;;;10345037;28;20037;-84
2022/04/05 11:08:11;;;;;;;21.13;12.27;;;5.40;99.90;;;;;;10336615;28;20054;-83
2022/04/05 11:13:44;;;;;;;24.50;13.73;;;5.30;99.90;;;;;;10351008;28;20040;-82
2022/04/05 11:18:57;;;;;;;19.83;12.07;;;5.20;99.90;;;;;;10337264;28;20049;-81
2022/04/05 11:23:57;;;;;;;31.67;18.33;;;5.10;99.90;;;;;;10345452;28;20038;-81
2022/04/05 11:29:00;;;;;;;31.60;17.93;;;5.10;99.90;;;;;;10369463;28;20080;-82
2022/04/05 11:34:03;;;;;;;27.00;15.17;;;5.20;99.90;;;;;;10369086;28;20537;-81
2022/04/05 11:39:03;;;;;;;25.53;15.40;;;5.20;99.90;;;;;;10369099;28;20037;-83
2022/04/05 11:44:07;;;;;;;33.57;18.00;;;5.30;99.90;;;;;;10368366;28;20037;-81
2022/04/05 11:49:11;;;;;;;34.03;20.27;;;5.40;99.90;;;;;;10360899;28;20046;-80
2022/04/05 11:54:14;;;;;;;41.57;24.47;;;5.50;99.90;;;;;;10369028;28;20029;-81
2022/04/05 11:59:18;;;;;;;41.17;22.47;;;5.80;99.90;;;;;;10342441;28;20046;-84
2022/04/05 12:04:22;;;;;;;32.63;21.00;;;5.90;99.90;;;;;;10368476;28;20033;-81
2022/04/05 12:09:24;;;;;;;35.10;21.90;;;5.80;99.90;;;;;;10368834;28;20030;-81
2022/04/05 12:14:28;;;;;;;39.17;22.20;;;5.80;99.90;;;;;;10368244;28;20024;-83
2022/04/05 12:19:37;;;;;;;37.00;21.07;;;5.70;99.90;;;;;;10367848;28;20125;-82
2022/04/05 12:24:43;;;;;;;39.20;22.53;;;5.70;99.90;;;;;;10364877;28;20034;-84
2022/04/05 12:29:44;;;;;;;36.53;21.50;;;5.70;99.90;;;;;;10367134;28;20072;-83
2022/04/05 12:34:44;;;;;;;33.20;17.33;;;5.70;99.90;;;;;;10329312;28;20486;-82
2022/04/05 12:39:48;;;;;;;28.97;17.57;;;5.60;99.90;;;;;;10338738;28;20510;-83
2022/04/05 12:44:57;;;;;;;31.87;18.03;;;5.60;99.90;;;;;;10365480;28;20553;-82
2022/04/05 12:50:01;;;;;;;29.87;16.80;;;5.60;99.90;;;;;;10359521;28;20071;-81
2022/04/05 12:55:15;;;;;;;25.83;14.23;;;5.70;99.90;;;;;;10356326;28;20029;-81
2022/04/05 13:00:23;;;;;;;21.50;12.77;;;5.70;99.90;;;;;;10340795;28;20049;-80
2022/04/05 13:10:48;;;;;;;44.20;22.17;;;5.80;99.90;;;;;;10358769;28;20042;-85
2022/04/05 13:15:56;;;;;;;72.70;31.27;;;5.70;99.90;;;;;;10346324;28;20037;-82
2022/04/05 13:21:02;;;;;;;62.50;38.93;;;5.70;99.90;;;;;;10338264;28;20042;-82
2022/04/05 13:26:05;;;;;;;78.35;34.85;;;5.80;99.90;;;;;;10339824;28;20024;-81
2022/04/05 13:31:12;;;;;;;105.77;48.40;;;5.80;99.90;;;;;;10357441;28;20033;-83
2022/04/05 13:36:12;;;;;;;77.03;39.07;;;5.80;99.90;;;;;;10366187;28;20466;-82
2022/04/05 13:41:13;;;;;;;94.70;50.33;;;5.80;99.90;;;;;;10364765;28;20092;-83
2022/04/05 13:46:14;;;;;;;92.17;46.10;;;5.90;99.90;;;;;;10365072;28;20098;-81
2022/04/05 13:51:15;;;;;;;102.23;54.63;;;6.00;99.90;;;;;;10352635;28;20034;-81
2022/04/05 13:56:15;;;;;;;131.43;66.30;;;5.90;99.90;;;;;;10372585;28;20037;-82
2022/04/05 14:01:16;;;;;;;122.00;65.73;;;5.80;99.90;;;;;;10373082;28;20492;-83
2022/04/05 14:06:17;;;;;;;148.97;82.60;;;5.80;99.90;;;;;;10354319;28;20029;-82
2022/04/05 14:11:24;;;;;;;147.50;72.97;;;5.80;99.90;;;;;;10356152;28;20069;-82
2022/04/05 14:16:25;;;;;;;99.40;48.37;;;5.80;99.90;;;;;;10371768;28;20643;-80
2022/04/05 14:21:32;;;;;;;115.17;56.93;;;5.80;99.90;;;;;;10365470;28;20052;-80
2022/04/05 14:26:33;;;;;;;104.63;52.27;;;5.90;99.90;;;;;;10335554;28;20026;-81
2022/04/05 14:31:34;;;;;;;105.87;49.03;;;5.90;99.90;;;;;;10353829;28;20030;-80
2022/04/05 14:36:35;;;;;;;73.77;35.63;;;5.90;99.90;;;;;;10353727;28;20034;-82
2022/04/05 14:41:37;;;;;;;60.00;27.73;;;5.80;99.90;;;;;;10352372;28;20034;-79
2022/04/05 14:46:38;;;;;;;54.40;27.80;;;5.60;99.90;;;;;;10367060;28;20099;-79
2022/04/05 14:51:42;;;;;;;63.67;32.97;;;5.70;99.90;;;;;;10339763;28;20097;-82
2022/04/05 14:56:44;;;;;;;65.57;34.07;;;5.70;99.90;;;;;;10344971;28;20525;-82
2022/04/05 15:01:46;;;;;;;81.73;36.63;;;5.70;99.90;;;;;;10361368;28;20540;-80
2022/04/05 15:06:48;;;;;;;81.83;34.17;;;5.60;99.90;;;;;;10369120;28;20422;-80
2022/04/05 15:11:50;;;;;;;61.90;27.73;;;5.60;99.90;;;;;;10369555;28;20033;-80
2022/04/05 15:16:51;;;;;;;73.27;35.13;;;5.60;99.90;;;;;;10352233;28;20497;-81
2022/04/05 15:21:53;;;;;;;84.47;33.47;;;5.50;99.90;;;;;;10378173;28;20044;-81
2022/04/05 15:26:54;;;;;;;66.37;31.97;;;5.50;99.90;;;;;;10395446;28;20030;-82
2022/04/05 15:31:54;;;;;;;66.97;30.43;;;5.40;99.90;;;;;;10349442;28;20021;-80
2022/04/05 15:36:55;;;;;;;36.93;18.27;;;5.40;99.90;;;;;;10383712;28;20045;-80
2022/04/05 15:41:56;;;;;;;98.67;46.20;;;5.40;99.90;;;;;;10388200;28;20045;-82
2022/04/05 15:46:56;;;;;;;105.73;49.73;;;5.40;99.90;;;;;;10376925;28;20046;-80
2022/04/05 15:51:58;;;;;;;124.63;62.87;;;5.50;99.90;;;;;;10370226;28;20685;-80
2022/04/05 15:56:59;;;;;;;86.87;45.23;;;5.70;99.90;;;;;;10386758;28;20112;-80
2022/04/05 16:02:00;;;;;;;98.60;47.83;;;5.70;99.90;;;;;;10384858;28;20026;-84
2022/04/05 16:07:04;;;;;;;85.33;40.67;;;5.70;99.90;;;;;;10388901;28;20034;-82
2022/04/05 16:12:05;;;;;;;83.37;40.63;;;5.70;99.90;;;;;;10375389;28;20033;-79
2022/04/05 16:17:06;;;;;;;152.17;73.00;;;5.60;99.90;;;;;;10370006;28;20391;-81
2022/04/05 16:22:07;;;;;;;154.83;71.13;;;5.60;99.90;;;;;;10361618;28;20038;-83
2022/04/05 16:27:08;;;;;;;182.27;95.93;;;5.60;99.90;;;;;;10369033;28;20461;-80
2022/04/05 16:32:08;;;;;;;234.67;97.13;;;5.50;99.90;;;;;;10374985;28;20026;-82
2022/04/05 16:37:09;;;;;;;261.83;114.97;;;5.50;99.90;;;;;;10384887;28;20044;-80
2022/04/05 16:42:10;;;;;;;125.80;56.53;;;5.50;99.90;;;;;;10357575;28;20034;-79
2022/04/05 16:47:11;;;;;;;188.70;84.70;;;5.50;99.90;;;;;;10351401;28;20390;-82
2022/04/05 16:52:12;;;;;;;183.70;92.17;;;5.40;99.90;;;;;;10350706;28;20026;-78
2022/04/05 16:57:14;;;;;;;150.30;65.37;;;5.40;99.90;;;;;;10354370;28;20046;-80
2022/04/05 17:02:14;;;;;;;140.57;57.37;;;5.30;99.90;;;;;;10359548;28;20774;-82
2022/04/05 17:07:15;;;;;;;89.93;45.17;;;5.30;99.90;;;;;;10341998;28;20117;-81
2022/04/05 17:12:16;;;;;;;143.93;79.47;;;5.30;99.90;;;;;;10353497;28;20029;-81
2022/04/05 17:17:16;;;;;;;271.23;108.87;;;5.30;99.90;;;;;;10371506;28;20026;-82
2022/04/05 17:22:19;;;;;;;101.47;50.43;;;5.30;99.90;;;;;;10374500;28;20536;-81
2022/04/05 17:27:20;;;;;;;111.33;54.73;;;5.20;99.90;;;;;;10356321;28;20029;-81
2022/04/05 17:32:21;;;;;;;440.43;181.10;;;5.20;99.90;;;;;;10376523;28;20032;-82
2022/04/05 17:37:21;;;;;;;701.67;318.37;;;5.20;99.90;;;;;;10381619;28;20490;-82
2022/04/05 17:42:22;;;;;;;412.60;165.53;;;5.20;99.90;;;;;;10352414;28;20026;-81
2022/04/05 17:47:22;;;;;;;230.00;103.87;;;5.20;99.90;;;;;;10369262;23;20153;-83
2022/04/05 17:52:23;;;;;;;180.47;80.83;;;5.20;99.90;;;;;;10371337;28;20026;-81
2022/04/05 17:57:24;;;;;;;177.63;76.40;;;5.20;99.90;;;;;;10358487;28;20076;-81
2022/04/05 18:02:26;;;;;;;237.67;109.40;;;5.20;99.90;;;;;;10367791;28;20112;-82
2022/04/05 18:07:26;;;;;;;289.50;137.67;;;5.20;99.90;;;;;;10369584;28;20030;-80
2022/04/05 18:12:27;;;;;;;276.00;136.47;;;5.30;99.90;;;;;;10360577;28;20038;-81
2022/04/05 18:17:28;;;;;;;267.53;125.90;;;5.30;99.90;;;;;;10369127;28;20038;-81
2022/04/05 18:22:29;;;;;;;266.10;133.30;;;5.30;99.90;;;;;;10369944;28;20034;-83
2022/04/05 18:27:29;;;;;;;254.53;115.93;;;5.30;99.90;;;;;;10384974;23;20160;-79
2022/04/05 18:32:30;;;;;;;293.47;140.50;;;5.30;99.90;;;;;;10382620;28;20473;-80
2022/04/05 18:37:30;;;;;;;285.07;133.43;;;5.30;99.90;;;;;;10403144;28;20055;-80
2022/04/05 18:42:31;;;;;;;299.03;135.73;;;5.30;99.90;;;;;;10407604;28;20026;-84
2022/04/05 18:47:32;;;;;;;329.80;145.67;;;5.30;99.90;;;;;;10390489;28;20087;-80
2022/04/05 18:52:34;;;;;;;373.40;163.47;;;5.30;99.90;;;;;;10395012;28;20029;-80
2022/04/05 18:57:35;;;;;;;326.93;142.63;;;5.30;99.90;;;;;;10385944;28;20132;-81
2022/04/05 19:02:36;;;;;;;417.40;188.13;;;5.30;99.90;;;;;;10387399;28;20057;-81
2022/04/05 19:07:38;;;;;;;427.27;191.40;;;5.30;99.90;;;;;;10377371;28;20454;-80
2022/04/05 19:12:38;;;;;;;299.53;135.53;;;5.30;99.90;;;;;;10407706;28;20021;-81
2022/04/05 19:17:39;;;;;;;277.30;124.20;;;5.30;99.90;;;;;;10395801;28;20041;-80
2022/04/05 19:22:41;;;;;;;358.37;178.83;;;5.30;99.90;;;;;;10401144;28;20029;-81
2022/04/05 19:27:42;;;;;;;383.17;194.27;;;5.30;99.90;;;;;;10409104;28;20050;-81
2022/04/05 19:32:43;;;;;;;373.93;184.93;;;5.30;99.90;;;;;;10392088;28;20032;-81
2022/04/05 19:37:45;;;;;;;313.57;144.40;;;5.30;99.90;;;;;;10399043;28;20045;-85
2022/04/05 19:42:46;;;;;;;404.03;203.27;;;5.30;99.90;;;;;;10387215;28;20029;-81
2022/04/05 19:47:47;;;;;;;363.13;167.37;;;5.30;99.90;;;;;;10396605;28;20389;-81
2022/04/05 19:52:48;;;;;;;387.73;182.03;;;5.30;99.90;;;;;;10410320;28;20029;-81
2022/04/05 19:57:48;;;;;;;297.57;147.13;;;5.30;99.90;;;;;;10389822;28;20409;-81
2022/04/05 20:02:49;;;;;;;266.50;123.13;;;5.30;99.90;;;;;;10390142;28;20036;-82
2022/04/05 20:07:51;;;;;;;255.73;125.53;;;5.30;99.90;;;;;;10409557;28;20553;-81
2022/04/05 20:12:52;;;;;;;211.70;102.03;;;5.30;99.90;;;;;;10407378;28;20495;-84
2022/04/05 20:23:12;;;;;;;125.57;62.97;;;5.50;99.90;;;;;;10373180;28;20061;-81
2022/04/05 20:28:12;;;;;;;107.07;53.43;;;5.50;99.90;;;;;;10377357;28;20081;-82
2022/04/05 20:33:13;;;;;;;84.70;43.97;;;5.60;99.90;;;;;;10405983;28;20027;-80
2022/04/05 20:38:14;;;;;;;73.37;39.73;;;5.70;99.90;;;;;;10406111;28;20540;-81
2022/04/05 20:43:14;;;;;;;81.17;42.10;;;5.60;99.90;;;;;;10404823;28;20040;-80
2022/04/05 20:48:15;;;;;;;78.87;39.73;;;5.60;99.90;;;;;;10400918;23;20057;-80
2022/04/05 20:53:16;;;;;;;76.77;40.17;;;5.60;99.90;;;;;;10363672;28;20022;-81
2022/04/05 20:58:17;;;;;;;62.90;32.40;;;5.60;99.90;;;;;;10365298;28;20550;-80
2022/04/05 21:03:18;;;;;;;53.30;28.93;;;5.70;99.90;;;;;;10371426;28;20030;-84
2022/04/05 21:08:18;;;;;;;50.03;28.90;;;5.70;99.90;;;;;;10373451;28;20083;-81
2022/04/05 21:13:19;;;;;;;49.77;28.63;;;5.80;99.90;;;;;;10372074;28;21019;-80
2022/04/05 21:18:20;;;;;;;45.93;25.57;;;5.80;99.90;;;;;;10374359;28;20440;-86
2022/04/05 21:23:21;;;;;;;43.20;24.37;;;5.90;99.90;;;;;;10369055;28;20040;-82
2022/04/05 21:29:30;;;;;;;47.20;25.07;;;5.90;99.90;;;;;;10365272;28;20052;-82
2022/04/05 21:33:42;;;;;;;41.70;23.37;;;6.00;99.90;;;;;;10365055;28;20049;-83
2022/04/05 21:38:43;;;;;;;38.10;21.00;;;6.00;99.90;;;;;;10374312;28;20049;-80
2022/04/05 21:43:44;;;;;;;35.90;20.03;;;6.00;99.90;;;;;;10345654;28;20033;-80
2022/04/05 21:48:44;;;;;;;33.47;19.90;;;6.10;99.90;;;;;;10376111;28;20206;-81
2022/04/05 21:53:45;;;;;;;37.90;21.07;;;6.20;99.90;;;;;;10406571;28;20814;-84
2022/04/05 21:58:46;;;;;;;35.23;21.10;;;6.20;99.90;;;;;;10400184;28;20394;-81
2022/04/05 22:03:46;;;;;;;41.23;22.73;;;6.20;99.90;;;;;;10403396;28;20037;-81
2022/04/05 22:08:47;;;;;;;37.93;22.40;;;6.20;99.90;;;;;;10395768;28;20029;-81
2022/04/05 22:13:48;;;;;;;43.17;24.67;;;6.20;99.90;;;;;;10411465;28;20092;-83
2022/04/05 22:18:51;;;;;;;38.13;21.07;;;6.30;99.90;;;;;;10412735;28;20065;-84
2022/04/05 22:23:52;;;;;;;42.67;22.90;;;6.30;99.90;;;;;;10411140;28;20119;-82
2022/04/05 22:28:52;;;;;;;41.17;22.43;;;6.40;99.90;;;;;;10412314;28;20119;-82
2022/04/05 22:33:54;;;;;;;36.40;21.10;;;6.50;99.90;;;;;;10410553;28;20033;-83
2022/04/05 22:38:55;;;;;;;38.23;22.23;;;6.50;99.90;;;;;;10395236;28;20037;-83
2022/04/05 22:43:56;;;;;;;38.73;22.93;;;6.50;99.90;;;;;;10408316;28;20072;-81
2022/04/05 22:48:56;;;;;;;53.90;27.13;;;6.50;99.90;;;;;;10410325;28;20494;-80
2022/04/05 22:53:57;;;;;;;34.43;20.30;;;6.60;99.90;;;;;;10411912;28;20026;-80
2022/04/05 22:58:57;;;;;;;48.67;26.30;;;6.50;99.90;;;;;;10412153;28;20117;-83
2022/04/05 23:03:58;;;;;;;36.73;20.67;;;6.40;99.90;;;;;;10393853;28;20037;-83
2022/04/05 23:08:59;;;;;;;38.53;20.50;;;6.40;99.90;;;;;;10398397;28;20038;-81
2022/04/05 23:14:00;;;;;;;41.80;24.07;;;6.30;99.90;;;;;;10405856;28;20120;-80
2022/04/05 23:19:01;;;;;;;35.23;19.83;;;6.40;99.90;;;;;;10391829;28;20037;-80
2022/04/05 23:24:02;;;;;;;36.57;20.03;;;6.40;99.90;;;;;;10407143;28;20029;-84
2022/04/05 23:29:02;;;;;;;38.17;21.73;;;6.40;99.90;;;;;;10392567;28;20025;-84
2022/04/05 23:34:04;;;;;;;35.67;20.83;;;6.40;99.90;;;;;;10413031;23;20054;-81
2022/04/05 23:39:04;;;;;;;33.70;20.43;;;6.40;99.90;;;;;;10350494;28;20034;-84
2022/04/05 23:44:05;;;;;;;41.77;24.30;;;6.40;99.90;;;;;;10354059;28;20117;-83
2022/04/05 23:49:07;;;;;;;36.73;21.57;;;6.40;99.90;;;;;;10362713;28;20037;-81
2022/04/05 23:54:08;;;;;;;33.70;18.93;;;6.40;99.90;;;;;;10354014;28;20037;-82
2022/04/05 23:59:08;;;;;;;36.93;21.20;;;6.40;99.90;;;;;;10362269;28;20041;-83
